Dades meteomassalio
Diari Summary for Marc 28, 2017 Units:  English    Metric   Both
« Previous Day
Next Day »
Diari Semanal Mensual Anual Personalitzat
  Maxima: Minima: Mijana:
Temperatura: TemperatureC °F 3.6 °F 11.4 °F
Rosada: DewpointC °F 2.6 °F 6.3 °F
Humitat: Humidity % 43 % 74 %
Velocitat del vent: WindSpeedKMH mph 0.0 mph 4.3 mph
Racha vent: WindSpeedGustKMH mph - -
Vent:- - WSW
Pressio: PressurehPa in 1024.3 in -
Pluja: 0.3 in    
Historical Graphs
 
 
Tabular Data for Marc 28, 2017
Time Temperature Dew Point Pressure Wind Wind Speed Wind Gust Humidity Rainfall Rate (Hourly) solar Conditions
TemperatureC °F DewpointC °F PressurehPa in Calm     Humidity % HourlyPrecipMM in SolarRadiationWatts/m^2 W/m2 Conditions
00:04 8.3 °F 6.8 °F 1024.3 in Calm     90 % 0.0 in 0.0 W/m2 RA
00:09 8.2 °F 6.7 °F 1024.6 in Calm     90 % 0.0 in 0.0 W/m2 CLR
00:14 8.1 °F 6.6 °F 1024.6 in Calm     90 % 0.0 in 0.0 W/m2 CLR
00:19 8.1 °F 6.7 °F 1024.6 in Calm     91 % 0.0 in 0.0 W/m2 CLR
00:24 8.0 °F 6.4 °F 1024.6 in Calm     90 % 0.0 in 0.0 W/m2 CLR
00:29 7.8 °F 6.2 °F 1024.6 in Calm     90 % 0.0 in 0.0 W/m2 CLR
00:34 7.7 °F 6.3 °F 1024.6 in Calm     91 % 0.0 in 0.0 W/m2 CLR
00:39 7.6 °F 6.2 °F 1024.6 in Calm     91 % 0.0 in 0.0 W/m2 CLR
00:44 7.6 °F 6.2 °F 1024.9 in Calm     91 % 0.0 in 0.0 W/m2 CLR
00:49 7.4 °F 6.0 °F 1024.9 in Calm     91 % 0.0 in 0.0 W/m2 CLR
00:54 7.3 °F 5.9 °F 1024.9 in Calm     91 % 0.0 in 0.0 W/m2 CLR
00:59 7.2 °F 6.0 °F 1024.9 in Calm     92 % 0.0 in 0.0 W/m2 CLR
01:04 7.1 °F 5.9 °F 1024.9 in Calm     92 % 0.0 in 0.0 W/m2 CLR
01:09 7.0 °F 5.6 °F 1024.9 in Calm     91 % 0.0 in 0.0 W/m2 CLR
01:14 6.9 °F 5.7 °F 1024.9 in Calm     92 % 0.0 in 0.0 W/m2 CLR
01:15 6.9 °F 5.7 °F 1024.9 in Calm     92 % 0.0 in 0.0 W/m2 CLR
01:20 6.8 °F 5.6 °F 1024.9 in Calm     92 % 0.0 in 0.0 W/m2 CLR
01:25 6.8 °F 5.6 °F 1024.9 in Calm     92 % 0.0 in 0.0 W/m2 CLR
01:30 6.8 °F 5.6 °F 1024.9 in Calm     92 % 0.0 in 0.0 W/m2 CLR
01:35 6.8 °F 5.6 °F 1024.9 in Calm     92 % 0.0 in 0.0 W/m2 CLR
01:40 6.9 °F 5.7 °F 1024.9 in Calm     92 % 0.0 in 0.0 W/m2 CLR
01:45 6.8 °F 5.6 °F 1024.9 in Calm     92 % 0.0 in 0.0 W/m2 CLR
01:50 6.6 °F 5.3 °F 1025.3 in Calm     92 % 0.0 in 0.0 W/m2 CLR
01:55 6.4 °F 5.2 °F 1025.3 in Calm     92 % 0.0 in 0.0 W/m2 CLR
02:00 6.3 °F 5.1 °F 1025.3 in Calm     92 % 0.0 in 0.0 W/m2 CLR
02:05 6.3 °F 5.1 °F 1025.3 in Calm     92 % 0.0 in 0.0 W/m2 CLR
02:10 6.3 °F 5.1 °F 1025.3 in Calm     92 % 0.0 in 0.0 W/m2 CLR
02:20 6.2 °F 5.0 °F 1025.3 in Calm     92 % 0.0 in 0.0 W/m2 CLR
02:25 6.1 °F 4.8 °F 1025.3 in Calm     92 % 0.0 in 0.0 W/m2 CLR
02:30 6.0 °F 4.8 °F 1025.3 in Calm     92 % 0.0 in 0.0 W/m2 CLR
02:35 5.9 °F 4.7 °F 1025.6 in Calm     92 % 0.0 in 0.0 W/m2 CLR
02:40 5.9 °F 4.7 °F 1025.3 in Calm     92 % 0.0 in 0.0 W/m2 CLR
02:45 5.8 °F 4.6 °F 1025.3 in Calm     92 % 0.0 in 0.0 W/m2 CLR
02:50 5.8 °F 4.6 °F 1025.3 in Calm     92 % 0.0 in 0.0 W/m2 CLR
02:55 5.6 °F 4.4 °F 1025.3 in Calm     92 % 0.0 in 0.0 W/m2 CLR
03:00 5.4 °F 4.2 °F 1025.3 in Calm     92 % 0.0 in 0.0 W/m2 CLR
03:05 5.4 °F 4.2 °F 1025.6 in Calm     92 % 0.0 in 0.0 W/m2 CLR
03:10 5.3 °F 4.3 °F 1025.6 in Calm     93 % 0.0 in 0.0 W/m2 CLR
03:15 5.4 °F 4.4 °F 1025.6 in Calm     93 % 0.0 in 0.0 W/m2 CLR
03:20 5.4 °F 4.3 °F 1025.6 in Calm     93 % 0.0 in 0.0 W/m2 CLR
03:25 5.2 °F 4.1 °F 1025.6 in Calm     92 % 0.0 in 0.0 W/m2 CLR
03:30 5.1 °F 4.1 °F 1025.6 in Calm     93 % 0.0 in 0.0 W/m2 CLR
03:35 5.1 °F 3.9 °F 1025.6 in Calm     92 % 0.0 in 0.0 W/m2 CLR
03:36 5.1 °F 3.9 °F 1025.6 in Calm     92 % 0.0 in 0.0 W/m2 CLR
03:41 5.0 °F 3.9 °F 1025.6 in Calm     93 % 0.0 in 0.0 W/m2 CLR
03:46 5.1 °F 4.0 °F 1025.6 in Calm     93 % 0.0 in 0.0 W/m2 CLR
03:51 5.1 °F 4.0 °F 1025.6 in Calm     93 % 0.0 in 0.0 W/m2 CLR
03:56 5.0 °F 3.9 °F 1025.6 in Calm     93 % 0.0 in 0.0 W/m2 CLR
04:01 5.1 °F 4.0 °F 1025.3 in Calm     93 % 0.0 in 0.0 W/m2 CLR
04:06 4.9 °F 3.9 °F 1025.6 in Calm     93 % 0.0 in 0.0 W/m2 CLR
04:11 4.8 °F 3.7 °F 1025.6 in Calm     93 % 0.0 in 0.0 W/m2 CLR
04:16 4.7 °F 3.6 °F 1025.6 in Calm     93 % 0.0 in 0.0 W/m2 CLR
04:21 4.6 °F 3.6 °F 1025.6 in Calm     93 % 0.0 in 0.0 W/m2 CLR
04:26 4.6 °F 3.5 °F 1025.6 in Calm     93 % 0.0 in 0.0 W/m2 CLR
04:31 4.6 °F 3.5 °F 1025.6 in Calm     93 % 0.0 in 0.0 W/m2 CLR
04:36 4.5 °F 3.4 °F 1025.6 in Calm     93 % 0.0 in 0.0 W/m2 CLR
04:41 4.3 °F 3.3 °F 1025.6 in Calm     93 % 0.0 in 0.0 W/m2 CLR
04:46 4.3 °F 3.3 °F 1025.6 in Calm     93 % 0.0 in 0.0 W/m2 CLR
04:51 4.3 °F 3.3 °F 1025.6 in Calm     93 % 0.0 in 0.0 W/m2 CLR
04:56 4.3 °F 3.2 °F 1025.6 in Calm     93 % 0.0 in 0.0 W/m2 CLR
05:01 4.2 °F 3.2 °F 1025.6 in Calm     93 % 0.0 in 0.0 W/m2 CLR
05:06 4.1 °F 3.1 °F 1025.6 in Calm     93 % 0.0 in 0.0 W/m2 CLR
05:11 4.2 °F 3.1 °F 1025.6 in Calm     93 % 0.0 in 0.0 W/m2 CLR
05:16 4.3 °F 3.2 °F 1025.6 in Calm     93 % 0.0 in 0.0 W/m2 CLR
05:21 4.3 °F 3.2 °F 1025.6 in Calm     93 % 0.0 in 0.0 W/m2 CLR
05:26 4.2 °F 3.1 °F 1025.6 in Calm     93 % 0.0 in 0.0 W/m2 CLR
05:31 4.2 °F 3.2 °F 1025.6 in SW 5.6 mph 5.6 mph 93 % 0.0 in 0.0 W/m2 CLR
05:36 4.3 °F 3.2 °F 1026.0 in Calm     93 % 0.0 in 0.0 W/m2 CLR
05:41 4.1 °F 3.0 °F 1026.0 in Calm     93 % 0.0 in 0.0 W/m2 CLR
05:46 4.1 °F 3.0 °F 1026.0 in Calm     93 % 0.0 in 0.0 W/m2 CLR
05:51 4.0 °F 2.9 °F 1026.0 in Calm     93 % 0.0 in 0.0 W/m2 CLR
05:56 3.9 °F 2.9 °F 1026.0 in Calm     93 % 0.0 in 0.0 W/m2 CLR
06:01 3.8 °F 2.8 °F 1026.0 in Calm     93 % 0.0 in 0.0 W/m2 CLR
06:06 3.9 °F 2.8 °F 1026.0 in Calm     93 % 0.0 in 0.0 W/m2 CLR
06:11 4.0 °F 2.9 °F 1026.0 in Calm     93 % 0.0 in 0.0 W/m2 CLR
06:16 4.1 °F 3.0 °F 1026.0 in Calm     93 % 0.0 in 0.0 W/m2 CLR
06:21 4.0 °F 2.9 °F 1026.0 in Calm     93 % 0.0 in 0.0 W/m2 CLR
06:26 4.1 °F 3.0 °F 1026.0 in Calm     93 % 0.0 in 0.0 W/m2 CLR
06:31 4.1 °F 3.0 °F 1026.0 in Calm     93 % 0.0 in 0.0 W/m2 CLR
06:36 3.9 °F 2.9 °F 1026.3 in Calm     93 % 0.0 in 0.0 W/m2 CLR
06:41 3.8 °F 2.8 °F 1026.3 in Calm     93 % 0.0 in 0.0 W/m2 CLR
06:46 3.8 °F 2.7 °F 1026.3 in Calm     93 % 0.0 in 0.0 W/m2 CLR
06:51 3.6 °F 2.6 °F 1026.3 in Calm     93 % 0.0 in 0.0 W/m2 CLR
06:56 3.8 °F 2.8 °F 1026.3 in Calm     93 % 0.0 in 0.0 W/m2 CLR
07:01 4.1 °F 3.2 °F 1026.3 in Calm     94 % 0.0 in 0.0 W/m2 CLR
07:06 4.0 °F 2.9 °F 1026.3 in Calm     93 % 0.3 in 0.0 W/m2 RA
07:11 3.9 °F 2.8 °F 1026.3 in Calm     93 % 0.3 in 0.0 W/m2 CLR
07:16 3.8 °F 2.7 °F 1026.3 in Calm     93 % 0.3 in 0.0 W/m2 CLR
07:21 3.7 °F 2.7 °F 1026.3 in Calm     93 % 0.3 in 0.0 W/m2 CLR
07:26 3.6 °F 2.6 °F 1026.3 in Calm     93 % 0.3 in 0.0 W/m2 CLR
07:31 3.6 °F 2.6 °F 1026.3 in Calm     93 % 0.3 in 0.0 W/m2 CLR
07:36 3.7 °F 2.8 °F 1026.6 in Calm     94 % 0.3 in 0.0 W/m2 CLR
07:41 3.7 °F 2.7 °F 1026.6 in Calm     93 % 0.3 in 0.0 W/m2 OVC
07:46 3.6 °F 2.6 °F 1026.6 in Calm     93 % 0.3 in 0.0 W/m2 OVC
07:51 3.6 °F 2.6 °F 1026.6 in SSW 3.2 mph 3.2 mph 93 % 0.3 in 5.0 W/m2 OVC
07:56 3.8 °F 2.9 °F 1026.6 in Calm     94 % 0.3 in 9.0 W/m2 BKN
08:01 3.7 °F 2.7 °F 1027.0 in Calm     93 % 0.3 in 12.0 W/m2 BKN
08:06 3.7 °F 2.7 °F 1027.0 in Calm     93 % 0.0 in 14.0 W/m2 BKN
08:11 3.8 °F 2.8 °F 1027.0 in Calm     93 % 0.0 in 18.0 W/m2 BKN
08:16 3.7 °F 2.7 °F 1027.3 in Calm     93 % 0.0 in 26.0 W/m2 BKN
08:21 3.8 °F 2.8 °F 1027.3 in Calm     93 % 0.0 in 35.0 W/m2 BKN
08:26 3.9 °F 3.1 °F 1027.3 in Calm     94 % 0.0 in 49.0 W/m2 SCT
08:31 4.1 °F 3.2 °F 1027.3 in Calm     94 % 0.0 in 60.0 W/m2 SCT
08:36 4.2 °F 3.1 °F 1027.3 in Calm     93 % 0.0 in 54.0 W/m2 SCT
08:41 4.4 °F 3.5 °F 1027.3 in Calm     94 % 0.0 in 33.0 W/m2 BKN
08:46 4.5 °F 3.4 °F 1027.3 in Calm     93 % 0.0 in 35.0 W/m2 BKN
08:51 4.7 °F 3.8 °F 1027.3 in Calm     94 % 0.0 in 72.0 W/m2 BKN
08:56 4.9 °F 4.1 °F 1027.3 in Calm     94 % 0.0 in 114.0 W/m2 SCT
09:01 5.2 °F 4.3 °F 1027.7 in Calm     94 % 0.0 in 149.0 W/m2 CLR
09:06 5.6 °F 4.7 °F 1027.3 in Calm     94 % 0.0 in 165.0 W/m2 CLR
09:11 5.9 °F 5.0 °F 1027.3 in Calm     94 % 0.0 in 183.0 W/m2 CLR
09:16 6.1 °F 5.2 °F 1027.3 in Calm     94 % 0.0 in 200.0 W/m2 CLR
09:21 6.3 °F 5.4 °F 1027.7 in Calm     94 % 0.0 in 221.0 W/m2 CLR
09:26 6.8 °F 5.9 °F 1027.7 in Calm     94 % 0.0 in 239.0 W/m2 CLR
09:31 7.2 °F 6.3 °F 1027.7 in Calm     94 % 0.0 in 255.0 W/m2 CLR
09:36 7.5 °F 6.4 °F 1027.7 in Calm     93 % 0.0 in 271.0 W/m2 CLR
09:41 7.9 °F 6.9 °F 1027.7 in Calm     93 % 0.0 in 285.0 W/m2 CLR
09:46 8.4 °F 7.3 °F 1027.7 in Calm     93 % 0.0 in 302.0 W/m2 CLR
09:51 8.7 °F 7.5 °F 1027.7 in Calm     92 % 0.0 in 318.0 W/m2 CLR
09:56 9.1 °F 7.9 °F 1027.7 in Calm     92 % 0.0 in 334.0 W/m2 CLR
10:01 9.6 °F 8.2 °F 1027.3 in Calm     91 % 0.0 in 350.0 W/m2 CLR
10:06 10.1 °F 8.7 °F 1027.3 in Calm     91 % 0.0 in 367.0 W/m2 CLR
10:11 10.7 °F 9.1 °F 1027.3 in Calm     90 % 0.0 in 385.0 W/m2 CLR
10:16 11.3 °F 9.6 °F 1027.7 in Calm     89 % 0.0 in 403.0 W/m2 CLR
10:21 11.7 °F 9.4 °F 1027.7 in Calm     86 % 0.0 in 411.0 W/m2 CLR
10:26 12.1 °F 9.3 °F 1027.7 in Calm     83 % 0.0 in 425.0 W/m2 CLR
10:31 12.4 °F 9.6 °F 1027.7 in Calm     83 % 0.0 in 446.0 W/m2 CLR
10:36 12.8 °F 9.7 °F 1027.7 in Calm     81 % 0.0 in 462.0 W/m2 CLR
10:41 13.1 °F 9.6 °F 1027.7 in Calm     79 % 0.0 in 476.0 W/m2 CLR
10:51 13.9 °F 9.7 °F 1027.7 in Calm     76 % 0.0 in 506.0 W/m2 CLR
10:57 14.2 °F 9.4 °F 1027.7 in NNW 13.0 mph 13.0 mph 73 % 0.0 in 519.0 W/m2 CLR
11:02 14.2 °F 9.2 °F 1027.7 in WSW 5.6 mph 5.6 mph 72 % 0.0 in 531.0 W/m2 CLR
11:07 14.3 °F 9.3 °F 1027.7 in NNW 13.0 mph 13.0 mph 72 % 0.0 in 541.0 W/m2 CLR
11:12 14.4 °F 9.2 °F 1027.7 in NNW 9.7 mph 9.7 mph 71 % 0.0 in 555.0 W/m2 CLR
11:17 14.7 °F 9.4 °F 1027.7 in WNW 1.9 mph   71 % 0.0 in 570.0 W/m2 CLR
11:22 14.9 °F 9.4 °F 1027.7 in NNW 12.9 mph 12.9 mph 70 % 0.0 in 580.0 W/m2 CLR
11:27 14.9 °F 9.2 °F 1027.7 in NNW 11.1 mph 11.1 mph 69 % 0.0 in 592.0 W/m2 CLR
11:32 15.0 °F 9.6 °F 1027.7 in NW 18.5 mph 18.5 mph 70 % 0.0 in 606.0 W/m2 CLR
11:37 15.0 °F 9.3 °F 1028.0 in NW 16.7 mph 16.7 mph 69 % 0.0 in 615.0 W/m2 CLR
11:42 14.9 °F 9.2 °F 1028.0 in NW 11.1 mph 11.1 mph 69 % 0.0 in 628.0 W/m2 CLR
11:47 15.0 °F 9.1 °F 1028.0 in West 11.1 mph 11.1 mph 68 % 0.0 in 638.0 W/m2 CLR
11:52 15.2 °F 9.3 °F 1028.0 in WNW 13.0 mph 13.0 mph 68 % 0.0 in 652.0 W/m2 CLR
11:57 15.2 °F 9.1 °F 1028.0 in North 11.1 mph 11.1 mph 67 % 0.0 in 659.0 W/m2 CLR
12:02 15.4 °F 9.1 °F 1028.0 in NNW 18.5 mph 18.5 mph 66 % 0.0 in 666.0 W/m2 CLR
12:07 15.2 °F 9.1 °F 1028.0 in NNW 18.5 mph 18.5 mph 67 % 0.0 in 700.0 W/m2 CLR
12:12 15.2 °F 9.3 °F 1028.0 in NW 9.3 mph 9.3 mph 68 % 0.0 in 687.0 W/m2 CLR
12:17 15.3 °F 9.7 °F 1028.0 in NW 9.3 mph 9.3 mph 69 % 0.0 in 700.0 W/m2 CLR
12:22 15.7 °F 10.2 °F 1028.0 in NW 13.0 mph 13.0 mph 70 % 0.0 in 707.0 W/m2 CLR
12:27 15.8 °F 9.7 °F 1028.0 in WNW 16.7 mph 16.7 mph 67 % 0.0 in 715.0 W/m2 CLR
12:32 15.8 °F 9.9 °F 1028.0 in NW 16.7 mph 16.7 mph 68 % 0.0 in 722.0 W/m2 CLR
12:37 15.8 °F 9.9 °F 1028.0 in NW 24.1 mph 24.1 mph 68 % 0.0 in 729.0 W/m2 CLR
12:42 15.8 °F 9.4 °F 1028.0 in WNW 18.5 mph 18.5 mph 66 % 0.0 in 742.0 W/m2 CLR
12:47 15.8 °F 9.2 °F 1028.0 in NW 20.9 mph 20.9 mph 65 % 0.0 in 747.0 W/m2 CLR
12:52 15.8 °F 9.7 °F 1028.0 in NW 24.1 mph 24.1 mph 67 % 0.0 in 752.0 W/m2 CLR
12:57 15.9 °F 9.6 °F 1028.0 in NW 24.1 mph 24.1 mph 66 % 0.0 in 761.0 W/m2 CLR
13:02 16.0 °F 9.7 °F 1028.0 in WNW 20.4 mph 20.4 mph 66 % 0.0 in 770.0 W/m2 CLR
13:07 16.1 °F 9.5 °F 1028.0 in NW 18.5 mph 18.5 mph 65 % 0.0 in 779.0 W/m2 CLR
13:12 16.2 °F 9.4 °F 1028.0 in NNW 16.7 mph 16.7 mph 64 % 0.0 in 772.0 W/m2 CLR
13:17 16.4 °F 9.1 °F 1027.7 in NNW 20.4 mph 20.4 mph 62 % 0.0 in 751.0 W/m2 CLR
13:22 16.4 °F 9.3 °F 1027.7 in NW 18.5 mph 18.5 mph 63 % 0.0 in 793.0 W/m2 CLR
13:27 16.5 °F 9.7 °F 1027.7 in NW 19.3 mph 19.3 mph 64 % 0.0 in 791.0 W/m2 CLR
13:32 16.6 °F 9.6 °F 1027.7 in NW 13.0 mph 13.0 mph 63 % 0.0 in 795.0 W/m2 CLR
13:37 16.7 °F 9.1 °F 1027.7 in NNW 20.4 mph 20.4 mph 61 % 0.0 in 796.0 W/m2 CLR
13:42 16.6 °F 9.2 °F 1027.7 in NNW 18.5 mph 18.5 mph 62 % 0.0 in 800.0 W/m2 CLR
13:47 16.6 °F 9.1 °F 1027.7 in NW 22.2 mph 22.2 mph 61 % 0.0 in 800.0 W/m2 CLR
13:52 16.9 °F 10.1 °F 1027.7 in North 18.5 mph 18.5 mph 64 % 0.0 in 800.0 W/m2 CLR
13:57 16.9 °F 9.6 °F 1027.7 in NW 20.4 mph 20.4 mph 62 % 0.0 in 807.0 W/m2 CLR
14:02 17.2 °F 9.8 °F 1027.3 in NNW 20.4 mph 20.4 mph 62 % 0.0 in 803.0 W/m2 CLR
14:07 17.2 °F 9.3 °F 1027.3 in North 18.5 mph 18.5 mph 60 % 0.0 in 770.0 W/m2 CLR
14:12 17.2 °F 9.6 °F 1027.3 in NW 18.5 mph 18.5 mph 61 % 0.0 in 807.0 W/m2 CLR
14:17 17.3 °F 9.4 °F 1027.3 in WNW 20.4 mph 20.4 mph 60 % 0.0 in 805.0 W/m2 CLR
14:22 17.3 °F 10.0 °F 1027.3 in NNW 6.4 mph 6.4 mph 62 % 0.0 in 791.0 W/m2 CLR
14:27 17.6 °F 8.9 °F 1027.3 in NW 11.1 mph 11.1 mph 57 % 0.0 in 803.0 W/m2 CLR
14:32 17.8 °F 9.9 °F 1027.3 in NW 14.8 mph 14.8 mph 60 % 0.0 in 798.0 W/m2 CLR
14:37 17.8 °F 8.4 °F 1027.3 in NNW 11.1 mph 11.1 mph 54 % 0.0 in 803.0 W/m2 CLR
14:42 17.9 °F 8.4 °F 1027.0 in North 7.4 mph 7.4 mph 54 % 0.0 in 809.0 W/m2 CLR
14:47 17.9 °F 7.1 °F 1027.0 in NNW 16.7 mph 16.7 mph 49 % 0.0 in 682.0 W/m2 CLR
14:52 17.9 °F 7.6 °F 1027.0 in NNW 11.1 mph 11.1 mph 51 % 0.0 in 747.0 W/m2 CLR
14:57 18.1 °F 7.8 °F 1027.0 in Calm     51 % 0.0 in 786.0 W/m2 CLR
15:02 18.3 °F 7.7 °F 1027.0 in Calm     50 % 0.0 in 784.0 W/m2 CLR
15:07 18.3 °F 7.4 °F 1027.0 in WNW 14.5 mph 14.5 mph 49 % 0.0 in 777.0 W/m2 CLR
15:12 18.3 °F 6.8 °F 1027.0 in WNW 1.9 mph   47 % 0.0 in 765.0 W/m2 CLR
15:17 18.6 °F 7.6 °F 1026.6 in North 9.7 mph 9.7 mph 49 % 0.0 in 759.0 W/m2 CLR
15:22 18.7 °F 6.8 °F 1026.6 in North 18.5 mph 18.5 mph 46 % 0.0 in 761.0 W/m2 CLR
15:27 18.7 °F 7.5 °F 1027.0 in NW 11.1 mph 11.1 mph 48 % 0.0 in 752.0 W/m2 CLR
15:32 18.7 °F 7.8 °F 1026.6 in North 8.0 mph 8.0 mph 49 % 0.0 in 747.0 W/m2 CLR
15:37 18.7 °F 7.1 °F 1026.6 in NE 5.6 mph 5.6 mph 47 % 0.0 in 735.0 W/m2 CLR
15:42 18.7 °F 7.8 °F 1026.6 in North 13.0 mph 13.0 mph 49 % 0.0 in 735.0 W/m2 CLR
15:47 18.8 °F 7.9 °F 1026.6 in NNW 17.7 mph 17.7 mph 49 % 0.0 in 724.0 W/m2 CLR
15:52 18.7 °F 7.5 °F 1026.6 in NW 5.6 mph 5.6 mph 48 % 0.0 in 710.0 W/m2 CLR
15:57 18.6 °F 7.7 °F 1026.6 in North 5.6 mph 5.6 mph 49 % 0.0 in 705.0 W/m2 CLR
16:02 18.6 °F 7.7 °F 1026.6 in North 5.6 mph 5.6 mph 49 % 0.0 in 696.0 W/m2 CLR
16:07 18.7 °F 7.7 °F 1026.6 in NNW 14.8 mph 14.8 mph 49 % 0.0 in 689.0 W/m2 CLR
16:12 18.8 °F 7.6 °F 1026.6 in North 14.8 mph 14.8 mph 48 % 0.0 in 701.0 W/m2 CLR
16:17 18.9 °F 8.3 °F 1026.3 in NNE 14.5 mph 14.5 mph 50 % 0.0 in 670.0 W/m2 CLR
16:22 18.9 °F 7.7 °F 1026.3 in NNE 14.8 mph 14.8 mph 48 % 0.0 in 652.0 W/m2 CLR
16:27 19.1 °F 7.8 °F 1026.3 in North 18.5 mph 18.5 mph 48 % 0.0 in 657.0 W/m2 CLR
16:32 19.2 °F 7.9 °F 1026.3 in NNE 3.2 mph 3.2 mph 48 % 0.0 in 642.0 W/m2 CLR
16:37 19.4 °F 8.4 °F 1026.3 in West 5.6 mph 5.6 mph 49 % 0.0 in 626.0 W/m2 CLR
16:42 19.2 °F 7.6 °F 1026.3 in NNW 18.5 mph 18.5 mph 47 % 0.0 in 613.0 W/m2 CLR
16:47 19.1 °F 7.2 °F 1026.3 in NE 5.6 mph 5.6 mph 46 % 0.0 in 598.0 W/m2 CLR
16:52 19.3 °F 7.7 °F 1026.3 in North 3.2 mph 4.3 mph 47 % 0.0 in 591.0 W/m2 CLR
16:57 19.4 °F 7.4 °F 1026.3 in NNE 19.3 mph 19.3 mph 46 % 0.0 in 575.0 W/m2 CLR
17:02 19.2 °F 7.6 °F 1026.3 in NNE 16.7 mph 16.7 mph 47 % 0.0 in 566.0 W/m2 CLR
17:07 19.3 °F 7.4 °F 1026.0 in NNE 3.7 mph   46 % 0.0 in 564.0 W/m2 CLR
17:12 19.4 °F 8.4 °F 1026.0 in North 5.6 mph 6.0 mph 49 % 0.0 in 555.0 W/m2 CLR
17:17 19.4 °F 7.8 °F 1026.0 in NNW 16.1 mph 16.1 mph 47 % 0.0 in 540.0 W/m2 CLR
17:22 19.3 °F 8.1 °F 1026.0 in WNW 13.0 mph 13.0 mph 48 % 0.0 in 506.0 W/m2 CLR
17:27 19.4 °F 7.8 °F 1026.0 in NNE 3.7 mph   47 % 0.0 in 490.0 W/m2 CLR
17:32 19.4 °F 7.8 °F 1026.0 in NNW 9.3 mph 9.3 mph 47 % 0.0 in 476.0 W/m2 CLR
17:37 19.3 °F 7.7 °F 1026.0 in NNW 14.8 mph 14.8 mph 47 % 0.0 in 457.0 W/m2 CLR
17:42 19.3 °F 7.4 °F 1026.0 in Calm     46 % 0.0 in 443.0 W/m2 CLR
17:47 19.4 °F 6.8 °F 1026.0 in North 18.5 mph 18.5 mph 44 % 0.0 in 429.0 W/m2 CLR
17:52 19.4 °F 7.2 °F 1026.0 in North 16.7 mph 16.7 mph 45 % 0.0 in 415.0 W/m2 CLR
17:57 19.4 °F 7.2 °F 1026.0 in NNW 16.7 mph 16.7 mph 45 % 0.0 in 401.0 W/m2 CLR
18:03 19.4 °F 6.8 °F 1026.0 in NW 9.3 mph 9.3 mph 44 % 0.0 in 387.0 W/m2 CLR
18:08 19.5 °F 7.2 °F 1026.0 in NNE 14.5 mph 14.5 mph 45 % 0.0 in 367.0 W/m2 CLR
18:13 19.4 °F 6.6 °F 1026.0 in North 18.5 mph 18.5 mph 43 % 0.0 in 352.0 W/m2 CLR
18:18 19.3 °F 6.8 °F 1026.0 in North 3.7 mph   44 % 0.0 in 336.0 W/m2 CLR
18:23 19.3 °F 6.4 °F 1026.0 in NNE 9.3 mph 9.3 mph 43 % 0.0 in 322.0 W/m2 FEW
18:28 19.3 °F 6.7 °F 1026.0 in NNW 11.1 mph 11.1 mph 44 % 0.0 in 306.0 W/m2 BKN
18:33 19.1 °F 6.6 °F 1026.0 in North 3.7 mph 3.7 mph 44 % 0.0 in 287.0 W/m2 OVC
18:38 19.2 °F 6.7 °F 1026.0 in Calm     44 % 0.0 in 271.0 W/m2 OVC
18:43 19.4 °F 6.8 °F 1026.0 in NNE 5.6 mph 5.6 mph 44 % 0.0 in 255.0 W/m2 OVC
18:48 19.4 °F 6.8 °F 1026.0 in North 7.4 mph 7.4 mph 44 % 0.0 in 237.0 W/m2 OVC
18:53 19.3 °F 6.8 °F 1026.0 in North 5.6 mph 5.6 mph 44 % 0.0 in 218.0 W/m2 OVC
18:58 19.3 °F 7.1 °F 1026.0 in NNW 7.4 mph 7.4 mph 45 % 0.0 in 199.0 W/m2 OVC
19:03 19.3 °F 7.1 °F 1026.0 in Calm     45 % 0.0 in 181.0 W/m2 OVC
19:08 19.2 °F 6.7 °F 1026.0 in Calm     44 % 0.0 in 162.0 W/m2 OVC
19:13 19.2 °F 6.7 °F 1026.0 in NNE 1.9 mph 1.9 mph 44 % 0.0 in 141.0 W/m2 OVC
19:18 19.1 °F 6.6 °F 1026.0 in North 8.0 mph 8.0 mph 44 % 0.0 in 125.0 W/m2 OVC
19:23 18.9 °F 6.7 °F 1026.0 in Calm     45 % 0.0 in 107.0 W/m2 OVC
19:28 18.8 °F 6.6 °F 1026.0 in NNW 5.6 mph 5.6 mph 45 % 0.0 in 91.0 W/m2 OVC
19:33 18.7 °F 6.8 °F 1026.0 in Calm     46 % 0.0 in 62.0 W/m2 OVC
19:38 18.7 °F 6.8 °F 1026.3 in Calm     46 % 0.0 in 49.0 W/m2 OVC
19:43 18.6 °F 6.8 °F 1026.3 in Calm     46 % 0.0 in 44.0 W/m2 OVC
19:48 18.4 °F 6.6 °F 1026.3 in NNW 5.6 mph 5.6 mph 46 % 0.0 in 35.0 W/m2 OVC
19:53 18.2 °F 6.9 °F 1026.3 in Calm     48 % 0.0 in 26.0 W/m2 OVC
19:58 17.9 °F 6.8 °F 1026.3 in Calm     48 % 0.0 in 18.0 W/m2 OVC
20:03 17.7 °F 6.5 °F 1026.3 in Calm     48 % 0.0 in 14.0 W/m2 OVC
20:08 17.4 °F 6.3 °F 1026.3 in Calm     48 % 0.0 in 12.0 W/m2 OVC
20:13 17.2 °F 6.4 °F 1026.3 in Calm     49 % 0.0 in 9.0 W/m2 OVC
20:14 17.2 °F 6.3 °F 1026.3 in Calm     49 % 0.0 in 7.0 W/m2 OVC
20:19 16.9 °F 6.2 °F 1026.3 in Calm     49 % 0.0 in 5.0 W/m2 OVC
20:24 16.7 °F 6.5 °F 1026.3 in Calm     51 % 0.0 in 0.0 W/m2 OVC
20:29 16.4 °F 6.5 °F 1026.3 in Calm     52 % 0.0 in 0.0 W/m2 OVC
20:34 16.2 °F 6.6 °F 1026.6 in Calm     53 % 0.0 in 0.0 W/m2 CLR
20:39 15.9 °F 6.9 °F 1026.6 in Calm     55 % 0.0 in 0.0 W/m2 CLR
20:44 15.6 °F 6.8 °F 1026.6 in Calm     56 % 0.0 in 0.0 W/m2 CLR
20:49 15.3 °F 6.8 °F 1026.6 in Calm     57 % 0.0 in 0.0 W/m2 CLR
20:54 15.0 °F 7.3 °F 1026.6 in Calm     60 % 0.0 in 0.0 W/m2 CLR
20:59 14.7 °F 7.2 °F 1026.6 in Calm     61 % 0.0 in 0.0 W/m2 CLR
21:01 14.6 °F 7.2 °F 1026.6 in Calm     61 % 0.0 in 0.0 W/m2 CLR
21:06 14.3 °F 7.4 °F 1027.0 in Calm     63 % 0.0 in 0.0 W/m2 CLR
21:10 13.9 °F 7.4 °F 1027.0 in Calm     65 % 0.0 in 0.0 W/m2 CLR
21:16 13.5 °F 7.3 °F 1027.0 in Calm     66 % 0.0 in 0.0 W/m2 CLR
21:21 13.2 °F 7.2 °F 1027.0 in Calm     67 % 0.0 in 0.0 W/m2 CLR
21:26 12.9 °F 7.4 °F 1027.0 in Calm     69 % 0.0 in 0.0 W/m2 CLR
21:31 12.7 °F 7.3 °F 1027.0 in Calm     70 % 0.0 in 0.0 W/m2 CLR
21:36 12.4 °F 7.3 °F 1027.3 in Calm     71 % 0.0 in 0.0 W/m2 CLR
21:41 12.2 °F 7.3 °F 1027.3 in Calm     72 % 0.0 in 0.0 W/m2 CLR
21:46 11.9 °F 7.3 °F 1027.3 in Calm     73 % 0.0 in 0.0 W/m2 CLR
21:51 11.7 °F 7.2 °F 1027.3 in Calm     74 % 0.0 in 0.0 W/m2 CLR
21:56 11.4 °F 7.2 °F 1027.3 in Calm     75 % 0.0 in 0.0 W/m2 CLR
22:01 11.3 °F 7.0 °F 1027.7 in Calm     75 % 0.0 in 0.0 W/m2 CLR
22:06 11.1 °F 7.0 °F 1027.7 in Calm     76 % 0.0 in 0.0 W/m2 CLR
22:11 10.8 °F 6.9 °F 1027.7 in Calm     77 % 0.0 in 0.0 W/m2 CLR
22:16 10.7 °F 6.8 °F 1027.7 in Calm     77 % 0.0 in 0.0 W/m2 CLR
22:21 10.6 °F 6.9 °F 1027.7 in Calm     78 % 0.0 in 0.0 W/m2 CLR
22:26 10.4 °F 6.7 °F 1027.7 in Calm     78 % 0.0 in 0.0 W/m2 CLR
22:31 10.2 °F 6.7 °F 1027.7 in Calm     79 % 0.0 in 0.0 W/m2 CLR
22:36 10.1 °F 6.6 °F 1028.0 in Calm     79 % 0.0 in 0.0 W/m2 CLR
22:41 10.0 °F 6.7 °F 1028.0 in Calm     80 % 0.0 in 0.0 W/m2 CLR
22:46 9.9 °F 6.6 °F 1028.0 in Calm     80 % 0.0 in 0.0 W/m2 CLR
22:51 9.8 °F 6.5 °F 1028.0 in Calm     80 % 0.0 in 0.0 W/m2 CLR
22:56 9.7 °F 6.4 °F 1028.0 in Calm     80 % 0.0 in 0.0 W/m2 CLR
23:01 9.5 °F 6.4 °F 1028.0 in Calm     81 % 0.0 in 0.0 W/m2 CLR
23:06 9.4 °F 6.3 °F 1028.0 in Calm     81 % 0.0 in 0.0 W/m2 CLR
23:11 9.3 °F 6.2 °F 1028.0 in Calm     81 % 0.0 in 0.0 W/m2 CLR
23:16 9.2 °F 6.1 °F 1028.0 in Calm     81 % 0.0 in 0.0 W/m2 CLR
23:21 9.2 °F 6.3 °F 1028.0 in Calm     82 % 0.0 in 0.0 W/m2 CLR
23:26 9.1 °F 6.2 °F 1028.0 in Calm     82 % 0.0 in 0.0 W/m2 CLR
23:31 9.1 °F 6.2 °F 1028.3 in Calm     82 % 0.0 in 0.0 W/m2 CLR
23:36 9.0 °F 6.1 °F 1028.3 in Calm     82 % 0.0 in 0.0 W/m2 CLR
23:41 8.9 °F 6.2 °F 1028.3 in Calm     83 % 0.0 in 0.0 W/m2 CLR
23:46 8.8 °F 6.1 °F 1028.3 in Calm     83 % 0.0 in 0.0 W/m2 CLR
23:51 8.7 °F 6.0 °F 1028.3 in Calm     83 % 0.0 in 0.0 W/m2 CLR
23:56 8.5 °F 5.8 °F 1028.3 in Calm     83 % 0.0 in 0.0 W/m2 CLR
Lo Temps de Massalio
Compliments of Weather Underground - 1.25 mb